Time;durP1;ratioP1;P1;durP2;ratioP2;P2;SDS_P1;SDS_P2;PMS_P1;PMS_P2;Temp;Humidity;BMP_temperature;BMP_pressure;BME280_temperature;BME280_humidity;BME280_pressure;Samples;Min_cycle;Max_cycle;Signal;HPM_P1;HPM_P2
2021/10/30 00:00:45;;;;;;;;;;;13.60;99.90;;;;;;1959415;72;20159;-71
2021/10/30 00:03:11;;;;;;;;;;;13.60;99.90;;;;;;1959533;73;20210;-71
2021/10/30 00:05:38;;;;;;;;;;;13.60;99.90;;;;;;1959325;72;20310;-71
2021/10/30 00:08:05;;;;;;;;;;;13.60;99.90;;;;;;1960578;72;20184;-71
2021/10/30 00:10:32;;;;;;;;;;;13.60;99.90;;;;;;1960729;72;20214;-71
2021/10/30 00:12:59;;;;;;;;;;;13.60;99.90;;;;;;1959601;72;20169;-71
2021/10/30 00:15:26;;;;;;;;;;;13.60;99.90;;;;;;1959644;72;20179;-71
2021/10/30 00:17:53;;;;;;;;;;;13.60;99.90;;;;;;1959424;73;20136;-71
2021/10/30 00:20:19;;;;;;;;;;;13.60;99.90;;;;;;1959481;73;20174;-71
2021/10/30 00:22:46;;;;;;;;;;;13.50;99.90;;;;;;1959739;73;20182;-71
2021/10/30 00:25:13;;;;;;;;;;;13.40;99.90;;;;;;1959332;73;20222;-71
2021/10/30 00:27:42;;;;;;;;;;;13.40;99.90;;;;;;1954945;72;20166;-71
2021/10/30 00:30:09;;;;;;;;;;;13.40;99.90;;;;;;1931887;74;20247;-71
2021/10/30 00:32:36;;;;;;;;;;;13.40;99.90;;;;;;1931970;74;20133;-71
2021/10/30 00:35:03;;;;;;;;;;;13.40;99.90;;;;;;1931773;74;20164;-71
2021/10/30 00:37:30;;;;;;;;;;;13.40;99.90;;;;;;1932147;73;20215;-71
2021/10/30 00:39:57;;;;;;;;;;;13.30;99.90;;;;;;1932015;74;20180;-71
2021/10/30 00:42:24;;;;;;;;;;;13.40;99.90;;;;;;1932160;74;20160;-71
2021/10/30 00:44:51;;;;;;;;;;;13.30;99.90;;;;;;1931928;73;20539;-71
2021/10/30 00:47:18;;;;;;;;;;;13.40;99.90;;;;;;1932115;73;20148;-71
2021/10/30 00:49:45;;;;;;;;;;;13.30;99.90;;;;;;1932084;74;20490;-71
2021/10/30 00:52:14;;;;;;;;;;;13.30;99.90;;;;;;1931901;74;20297;-71
2021/10/30 00:54:41;;;;;;;;;;;13.30;99.90;;;;;;1931925;74;20114;-71
2021/10/30 00:57:10;;;;;;;;;;;13.40;99.90;;;;;;1931482;73;20149;-71
2021/10/30 00:59:37;;;;;;;;;;;13.40;99.90;;;;;;1931783;74;20198;-71
2021/10/30 01:02:04;;;;;;;;;;;13.40;99.90;;;;;;1933936;72;20106;-71
2021/10/30 01:04:31;;;;;;;;;;;13.50;99.90;;;;;;1937858;72;20171;-71
2021/10/30 01:06:59;;;;;;;;;;;13.50;99.90;;;;;;1933908;73;20151;-71
2021/10/30 01:09:25;;;;;;;;;;;13.60;99.90;;;;;;1934139;74;20174;-71
2021/10/30 01:11:53;;;;;;;;;;;13.50;99.90;;;;;;1934090;74;20150;-71
2021/10/30 01:14:20;;;;;;;;;;;13.50;99.90;;;;;;1933989;73;20151;-71
2021/10/30 01:16:58;;;;;;;;;;;13.50;99.90;;;;;;1933923;73;20175;-71
2021/10/30 01:19:25;;;;;;;;;;;13.50;99.90;;;;;;1933555;74;20108;-71
2021/10/30 01:21:52;;;;;;;;;;;13.50;99.90;;;;;;1934101;74;20208;-71
2021/10/30 01:24:19;;;;;;;;;;;13.50;99.90;;;;;;1934128;74;20232;-71
2021/10/30 01:26:46;;;;;;;;;;;13.50;99.90;;;;;;1933857;73;20155;-71
2021/10/30 01:29:13;;;;;;;;;;;13.50;99.90;;;;;;1934003;74;20154;-70
2021/10/30 01:31:40;;;;;;;;;;;13.50;99.90;;;;;;1934002;74;20174;-71
2021/10/30 01:34:08;;;;;;;;;;;13.60;99.90;;;;;;1934094;74;20115;-70
2021/10/30 01:36:35;;;;;;;;;;;13.50;99.90;;;;;;1933957;73;20108;-71
2021/10/30 01:39:03;;;;;;;;;;;13.50;99.90;;;;;;1933931;74;20321;-71
2021/10/30 01:41:30;;;;;;;;;;;13.50;99.90;;;;;;1933497;74;20236;-71
2021/10/30 01:43:57;;;;;;;;;;;13.50;99.90;;;;;;1934009;73;20155;-71
2021/10/30 01:46:25;;;;;;;;;;;13.50;99.90;;;;;;1933882;73;20202;-71
2021/10/30 01:48:52;;;;;;;;;;;13.50;99.90;;;;;;1934015;74;20201;-70
2021/10/30 01:51:20;;;;;;;;;;;13.40;99.90;;;;;;1936975;72;20467;-71
2021/10/30 01:53:47;;;;;;;;;;;13.40;99.90;;;;;;1955569;73;20498;-70
2021/10/30 01:56:14;;;;;;;;;;;13.40;99.90;;;;;;1959476;73;20221;-71
2021/10/30 01:58:41;;;;;;;;;;;13.40;99.90;;;;;;1959595;72;20228;-71
2021/10/30 02:01:09;;;;;;;;;;;13.40;99.90;;;;;;1959497;73;20516;-71
2021/10/30 02:03:36;;;;;;;;;;;13.30;99.90;;;;;;1959673;73;20135;-71
2021/10/30 02:06:04;;;;;;;;;;;13.30;99.90;;;;;;1959281;73;20186;-71
2021/10/30 02:08:31;;;;;;;;;;;13.30;99.90;;;;;;1959419;73;20503;-71
2021/10/30 02:10:58;;;;;;;;;;;13.30;99.90;;;;;;1959308;72;20143;-71
2021/10/30 02:13:25;;;;;;;;;;;13.30;99.90;;;;;;1959251;72;20224;-71
2021/10/30 02:15:52;;;;;;;;;;;13.30;99.90;;;;;;1978724;71;20172;-71
2021/10/30 02:18:19;;;;;;;;;;;13.40;99.90;;;;;;1994493;72;20164;-71
2021/10/30 02:20:46;;;;;;;;;;;13.40;99.90;;;;;;1994613;72;20101;-70
2021/10/30 02:23:13;;;;;;;;;;;13.40;99.90;;;;;;1994500;72;20190;-71
2021/10/30 02:25:40;;;;;;;;;;;13.40;99.90;;;;;;1994488;72;20118;-71
2021/10/30 02:28:07;;;;;;;;;;;13.50;99.90;;;;;;1994432;71;20173;-72
2021/10/30 02:30:34;;;;;;;;;;;13.50;99.90;;;;;;1994606;72;20164;-72
2021/10/30 02:33:00;;;;;;;;;;;13.50;99.90;;;;;;1994541;72;20210;-71
2021/10/30 02:35:27;;;;;;;;;;;13.50;99.90;;;;;;1994362;72;20168;-72
2021/10/30 02:38:13;;;;;;;;;;;13.40;99.90;;;;;;1949516;71;20168;-72
2021/10/30 02:40:40;;;;;;;;;;;13.50;99.90;;;;;;1896542;75;20209;-71
2021/10/30 02:43:07;;;;;;;;;;;13.50;99.90;;;;;;1896658;76;20112;-72
2021/10/30 02:45:34;;;;;;;;;;;13.40;99.90;;;;;;1896419;76;20445;-72
2021/10/30 02:48:02;;;;;;;;;;;13.40;99.90;;;;;;1924796;74;20129;-72
2021/10/30 02:50:28;;;;;;;;;;;13.40;99.90;;;;;;1927769;74;20450;-72
2021/10/30 02:52:55;;;;;;;;;;;13.40;99.90;;;;;;1927688;74;20152;-71
2021/10/30 02:55:23;;;;;;;;;;;13.40;99.90;;;;;;1927536;74;20157;-72
2021/10/30 02:57:52;;;;;;;;;;;13.40;99.90;;;;;;1899628;73;20143;-72
2021/10/30 03:00:18;;;;;;;;;;;13.40;99.90;;;;;;1894411;76;20478;-72
2021/10/30 03:02:45;;;;;;;;;;;13.30;99.90;;;;;;1894467;74;20158;-72
2021/10/30 03:05:12;;;;;;;;;;;13.30;99.90;;;;;;1894269;76;20956;-72
2021/10/30 03:07:39;;;;;;;;;;;13.40;99.90;;;;;;1894390;76;20116;-72
2021/10/30 03:10:07;;;;;;;;;;;13.30;99.90;;;;;;1894410;76;20209;-71
2021/10/30 03:12:34;;;;;;;;;;;13.30;99.90;;;;;;1894501;76;20119;-71
2021/10/30 03:15:00;;;;;;;;;;;13.20;99.90;;;;;;1894258;76;20245;-72
2021/10/30 03:17:27;;;;;;;;;;;13.10;99.90;;;;;;1894525;76;20385;-72
2021/10/30 03:19:54;;;;;;;;;;;13.10;99.90;;;;;;1894360;76;20162;-72
2021/10/30 03:22:21;;;;;;;;;;;13.00;99.90;;;;;;1894430;76;20175;-71
2021/10/30 03:24:48;;;;;;;;;;;13.10;99.90;;;;;;1894376;76;20397;-71
2021/10/30 03:27:14;;;;;;;;;;;13.00;99.90;;;;;;1894226;76;20209;-71
2021/10/30 03:29:41;;;;;;;;;;;12.90;99.90;;;;;;1894357;76;20449;-72
2021/10/30 03:32:08;;;;;;;;;;;12.80;99.90;;;;;;1894393;76;20488;-72
2021/10/30 03:34:35;;;;;;;;;;;12.80;99.90;;;;;;1894281;76;20162;-72
2021/10/30 03:37:02;;;;;;;;;;;12.80;99.90;;;;;;1894309;76;20123;-71
2021/10/30 03:39:29;;;;;;;;;;;12.90;99.90;;;;;;1894520;76;20164;-71
2021/10/30 03:41:56;;;;;;;;;;;12.70;99.90;;;;;;1894415;76;20487;-71
2021/10/30 03:44:22;;;;;;;;;;;12.70;99.90;;;;;;1894231;76;20215;-72
2021/10/30 03:46:49;;;;;;;;;;;12.70;99.90;;;;;;1894497;76;20437;-72
2021/10/30 03:49:16;;;;;;;;;;;12.70;99.90;;;;;;1894338;76;20154;-71
2021/10/30 03:51:44;;;;;;;;;;;12.60;99.90;;;;;;1894581;76;20163;-71
2021/10/30 03:54:11;;;;;;;;;;;12.60;99.90;;;;;;1894404;76;20178;-71
2021/10/30 03:56:38;;;;;;;;;;;12.50;99.90;;;;;;1894390;74;20485;-71
2021/10/30 03:59:04;;;;;;;;;;;12.50;99.90;;;;;;1918114;75;20138;-71
2021/10/30 04:01:31;;;;;;;;;;;12.50;99.90;;;;;;1921891;75;20169;-71
2021/10/30 04:03:58;;;;;;;;;;;12.50;99.90;;;;;;1921963;75;20134;-71
2021/10/30 04:06:25;;;;;;;;;;;12.40;99.90;;;;;;1921808;75;20118;-71
2021/10/30 04:08:52;;;;;;;;;;;12.40;99.90;;;;;;1921930;75;20200;-71
2021/10/30 04:11:19;;;;;;;;;;;12.50;99.90;;;;;;1921047;75;20110;-71
2021/10/30 04:13:46;;;;;;;;;;;12.40;99.90;;;;;;1897446;75;20472;-71
2021/10/30 04:16:13;;;;;;;;;;;12.40;99.90;;;;;;1894350;76;20467;-71
2021/10/30 04:18:42;;;;;;;;;;;12.30;99.90;;;;;;1894337;76;20147;-71
2021/10/30 04:21:10;;;;;;;;;;;12.40;99.90;;;;;;1894315;76;20127;-71
2021/10/30 04:23:37;;;;;;;;;;;12.40;99.90;;;;;;1894602;76;20194;-71
2021/10/30 04:26:05;;;;;;;;;;;12.50;99.90;;;;;;1894269;76;20194;-71
2021/10/30 04:28:32;;;;;;;;;;;12.50;99.90;;;;;;1886089;72;20194;-72
2021/10/30 04:31:03;;;;;;;;;;;12.50;99.90;;;;;;1886772;76;20175;-72
2021/10/30 04:33:28;;;;;;;;;;;12.40;99.90;;;;;;1886477;76;20117;-72
2021/10/30 04:35:54;;;;;;;;;;;12.40;99.90;;;;;;1886655;76;20171;-72
2021/10/30 04:38:22;;;;;;;;;;;12.40;99.90;;;;;;1886702;75;20159;-72
2021/10/30 04:40:49;;;;;;;;;;;12.30;99.90;;;;;;1895750;74;20123;-72
2021/10/30 04:43:16;;;;;;;;;;;12.30;99.90;;;;;;1888952;76;20213;-72
2021/10/30 04:45:43;;;;;;;;;;;12.30;99.90;;;;;;1889078;76;20171;-72
2021/10/30 04:48:11;;;;;;;;;;;12.30;99.90;;;;;;1889041;75;20132;-72
2021/10/30 04:50:38;;;;;;;;;;;12.30;99.90;;;;;;1889202;76;20171;-72
2021/10/30 04:53:05;;;;;;;;;;;12.20;99.90;;;;;;1890030;75;20175;-72
2021/10/30 04:55:32;;;;;;;;;;;12.10;99.90;;;;;;1927059;74;20283;-72
2021/10/30 04:57:58;;;;;;;;;;;12.20;99.90;;;;;;1935511;73;20457;-72
2021/10/30 05:00:25;;;;;;;;;;;12.20;99.90;;;;;;1935690;74;20164;-71
2021/10/30 05:02:52;;;;;;;;;;;12.20;99.90;;;;;;1935668;74;20426;-72
2021/10/30 05:05:19;;;;;;;;;;;12.20;99.90;;;;;;1935626;74;20171;-72
2021/10/30 05:07:45;;;;;;;;;;;12.30;99.90;;;;;;1935520;73;20474;-72
2021/10/30 05:10:13;;;;;;;;;;;12.20;99.90;;;;;;1935782;74;20190;-72
2021/10/30 05:12:39;;;;;;;;;;;12.20;99.90;;;;;;1935791;74;20187;-72
2021/10/30 05:15:06;;;;;;;;;;;12.20;99.90;;;;;;1935521;74;20461;-72
2021/10/30 05:17:33;;;;;;;;;;;12.20;99.90;;;;;;1935594;73;20191;-72
2021/10/30 05:20:00;;;;;;;;;;;12.10;99.90;;;;;;1935829;74;20121;-72
2021/10/30 05:22:27;;;;;;;;;;;12.20;99.90;;;;;;1935523;74;20160;-72
2021/10/30 05:24:54;;;;;;;;;;;12.30;99.90;;;;;;1935709;74;20179;-71
2021/10/30 05:27:21;;;;;;;;;;;12.20;99.90;;;;;;1935479;73;20153;-72
2021/10/30 05:29:47;;;;;;;;;;;12.20;99.90;;;;;;1935822;74;20167;-71
2021/10/30 05:32:14;;;;;;;;;;;12.20;99.90;;;;;;1935736;74;20120;-71
2021/10/30 05:34:41;;;;;;;;;;;12.20;99.90;;;;;;1935495;74;20199;-71
2021/10/30 05:37:08;;;;;;;;;;;12.30;99.90;;;;;;1935692;73;20210;-71
2021/10/30 05:39:39;;;;;;;;;;;12.10;99.90;;;;;;1935740;73;20163;-71
2021/10/30 05:42:07;;;;;;;;;;;12.10;99.90;;;;;;1935765;74;20160;-72
2021/10/30 05:44:35;;;;;;;;;;;12.20;99.90;;;;;;1935738;74;20462;-71
2021/10/30 05:47:02;;;;;;;;;;;12.20;99.90;;;;;;1935451;73;20190;-71
2021/10/30 05:49:29;;;;;;;;;;;12.20;99.90;;;;;;1935749;74;20148;-71
2021/10/30 05:51:56;;;;;;;;;;;12.20;99.90;;;;;;1935598;74;20450;-73
2021/10/30 05:54:23;;;;;;;;;;;12.20;99.90;;;;;;1915070;74;20481;-71
2021/10/30 05:56:49;;;;;;;;;;;12.20;99.90;;;;;;1886391;76;20146;-71
2021/10/30 05:59:16;;;;;;;;;;;12.20;99.90;;;;;;1886434;75;20518;-71
2021/10/30 06:01:43;;;;;;;;;;;12.20;99.90;;;;;;1886691;76;20220;-71
2021/10/30 06:04:10;;;;;;;;;;;12.20;99.90;;;;;;1885789;76;20815;-71
2021/10/30 06:06:37;;;;;;;;;;;12.10;99.90;;;;;;1886495;76;20209;-71
2021/10/30 06:09:04;;;;;;;;;;;12.20;99.90;;;;;;1886571;75;20136;-71
2021/10/30 06:11:31;;;;;;;;;;;12.20;99.90;;;;;;1886501;75;20210;-71
2021/10/30 06:13:57;;;;;;;;;;;12.20;99.90;;;;;;1886722;75;20154;-73
2021/10/30 06:16:25;;;;;;;;;;;12.20;99.90;;;;;;1886433;75;20322;-71
2021/10/30 06:18:53;;;;;;;;;;;12.20;99.90;;;;;;1886749;75;20360;-71
2021/10/30 06:21:20;;;;;;;;;;;12.20;99.90;;;;;;1886591;75;20142;-71
2021/10/30 06:23:49;;;;;;;;;;;12.20;99.90;;;;;;1886767;76;20221;-71
2021/10/30 06:26:16;;;;;;;;;;;12.20;99.90;;;;;;1886394;76;20220;-71
2021/10/30 06:28:43;;;;;;;;;;;12.20;99.90;;;;;;1886748;75;20217;-71
2021/10/30 06:31:10;;;;;;;;;;;12.20;99.90;;;;;;1886700;76;20127;-71
2021/10/30 06:33:37;;;;;;;;;;;12.20;99.90;;;;;;1886518;76;20191;-71
2021/10/30 06:36:04;;;;;;;;;;;12.20;99.90;;;;;;1895473;74;20136;-71
2021/10/30 06:38:31;;;;;;;;;;;12.30;99.90;;;;;;1888976;75;20187;-71
2021/10/30 06:40:59;;;;;;;;;;;12.20;99.90;;;;;;1889208;76;20210;-71
2021/10/30 06:43:26;;;;;;;;;;;12.20;99.90;;;;;;1889107;76;20112;-71
2021/10/30 06:45:53;;;;;;;;;;;12.20;99.90;;;;;;1888947;76;20318;-71
2021/10/30 06:48:20;;;;;;;;;;;12.10;99.90;;;;;;1887798;75;20172;-71
2021/10/30 06:50:47;;;;;;;;;;;11.90;99.90;;;;;;1907649;74;20121;-71
2021/10/30 06:53:14;;;;;;;;;;;12.10;99.90;;;;;;1886605;76;20177;-71
2021/10/30 06:55:42;;;;;;;;;;;12.00;99.90;;;;;;1886440;76;20170;-71
2021/10/30 06:58:08;;;;;;;;;;;12.00;99.90;;;;;;1886544;75;20463;-71
2021/10/30 07:00:35;;;;;;;;;;;12.00;99.90;;;;;;1886492;76;20201;-71
2021/10/30 07:03:03;;;;;;;;;;;12.00;99.90;;;;;;1886514;76;20207;-71
2021/10/30 07:05:29;;;;;;;;;;;12.10;99.90;;;;;;1886311;76;20159;-72
2021/10/30 07:07:56;;;;;;;;;;;12.10;99.90;;;;;;1886654;75;20228;-71
2021/10/30 07:10:23;;;;;;;;;;;12.10;99.90;;;;;;1886455;76;20183;-71
2021/10/30 07:12:50;;;;;;;;;;;12.20;99.90;;;;;;1886465;76;20187;-71
2021/10/30 07:15:17;;;;;;;;;;;12.20;99.90;;;;;;1886627;76;20171;-71
2021/10/30 07:17:43;;;;;;;;;;;12.20;99.90;;;;;;1886464;75;20124;-71
2021/10/30 07:20:10;;;;;;;;;;;12.20;99.90;;;;;;1886429;76;20171;-71
2021/10/30 07:22:42;;;;;;;;;;;12.30;99.90;;;;;;1886360;76;20179;-71
2021/10/30 07:25:09;;;;;;;;;;;12.20;99.90;;;;;;1886371;76;20460;-71
2021/10/30 07:27:35;;;;;;;;;;;12.20;99.90;;;;;;1886613;75;20168;-71
2021/10/30 07:30:03;;;;;;;;;;;12.30;99.90;;;;;;1886576;76;20175;-71
2021/10/30 07:32:30;;;;;;;;;;;12.20;99.90;;;;;;1886686;75;20211;-71
2021/10/30 07:34:56;;;;;;;;;;;12.20;99.90;;;;;;1886451;76;20461;-71
2021/10/30 07:37:23;;;;;;;;;;;12.40;99.90;;;;;;1886444;75;20197;-71
2021/10/30 07:39:51;;;;;;;;;;;12.30;99.90;;;;;;1886654;76;20810;-71
2021/10/30 07:42:19;;;;;;;;;;;12.30;99.90;;;;;;1886643;76;20371;-71
2021/10/30 07:44:46;;;;;;;;;;;12.30;99.90;;;;;;1886531;76;20410;-71
2021/10/30 07:47:13;;;;;;;;;;;12.40;99.90;;;;;;1886382;75;20493;-71
2021/10/30 07:49:40;;;;;;;;;;;12.40;99.90;;;;;;1886576;76;20195;-71
2021/10/30 07:52:07;;;;;;;;;;;12.40;99.90;;;;;;1886828;76;20120;-71
2021/10/30 07:54:34;;;;;;;;;;;12.40;99.90;;;;;;1885766;74;20171;-71
2021/10/30 07:57:05;;;;;;;;;;;12.40;99.90;;;;;;1882116;75;20168;-71
2021/10/30 07:59:31;;;;;;;;;;;12.30;99.90;;;;;;1882156;76;20492;-71
2021/10/30 08:02:02;;;;;;;;;;;12.20;99.90;;;;;;1882393;76;20155;-71
2021/10/30 08:04:30;;;;;;;;;;;12.20;99.90;;;;;;1882446;76;20206;-71
2021/10/30 08:06:57;;;;;;;;;;;12.20;99.90;;;;;;1855554;76;20177;-71
2021/10/30 08:09:24;;;;;;;;;;;12.30;99.90;;;;;;1853107;77;20252;-71
2021/10/30 08:11:50;;;;;;;;;;;12.30;99.90;;;;;;1853166;77;20126;-72
2021/10/30 08:14:17;;;;;;;;;;;12.30;99.90;;;;;;1853255;77;20504;-71
2021/10/30 08:16:44;;;;;;;;;;;12.30;99.90;;;;;;1853031;76;20196;-73
2021/10/30 08:19:11;;;;;;;;;;;12.20;99.90;;;;;;1853340;77;20126;-73
2021/10/30 08:21:38;;;;;;;;;;;12.20;99.90;;;;;;1853279;77;20478;-73
2021/10/30 08:24:05;;;;;;;;;;;12.30;99.90;;;;;;1853360;77;20380;-72
2021/10/30 08:26:34;;;;;;;;;;;12.30;99.90;;;;;;1852978;76;20197;-73
2021/10/30 08:29:01;;;;;;;;;;;12.30;99.90;;;;;;1853161;76;20122;-73
2021/10/30 08:31:28;;;;;;;;;;;12.20;99.90;;;;;;1853156;77;20554;-73
2021/10/30 08:33:57;;;;;;;;;;;12.30;99.90;;;;;;1853413;76;20118;-73
2021/10/30 08:36:24;;;;;;;;;;;12.30;99.90;;;;;;1853043;77;20185;-73
2021/10/30 08:38:51;;;;;;;;;;;12.20;99.90;;;;;;1883154;74;20412;-73
2021/10/30 08:41:18;;;;;;;;;;;12.20;99.90;;;;;;1923854;75;20122;-73
2021/10/30 08:43:45;;;;;;;;;;;12.20;99.90;;;;;;1923744;74;20191;-73
2021/10/30 08:46:13;;;;;;;;;;;12.10;99.90;;;;;;1923750;73;20157;-73
2021/10/30 08:48:40;;;;;;;;;;;12.10;99.90;;;;;;1923785;75;20169;-72
2021/10/30 08:51:07;;;;;;;;;;;12.20;99.90;;;;;;1923637;74;20118;-72
2021/10/30 08:53:35;;;;;;;;;;;12.20;99.90;;;;;;1923773;74;20173;-72
2021/10/30 08:56:05;;;;;;;;;;;12.20;99.90;;;;;;1921084;74;20124;-72
2021/10/30 08:58:32;;;;;;;;;;;12.20;99.90;;;;;;1854838;76;20537;-72
2021/10/30 09:01:01;;;;;;;;;;;12.10;99.90;;;;;;1854770;77;20447;-72
2021/10/30 09:03:28;;;;;;;;;;;12.20;99.90;;;;;;1854846;77;20153;-71
2021/10/30 09:05:56;;;;;;;;;;;12.20;99.90;;;;;;1854602;77;20535;-72
2021/10/30 09:08:26;;;;;;;;;;;12.30;99.90;;;;;;1854881;76;20177;-72
2021/10/30 09:10:54;;;;;;;;;;;12.30;99.90;;;;;;1854974;77;20126;-72
2021/10/30 09:13:21;;;;;;;;;;;12.20;99.90;;;;;;1854645;76;20483;-72
2021/10/30 09:15:50;;;;;;;;;;;12.30;99.90;;;;;;1854776;77;20433;-71
2021/10/30 09:18:32;;;;;;;;;;;12.30;99.90;;;;;;1854656;76;20452;-72
2021/10/30 09:20:57;;;;;;;;;;;12.40;99.90;;;;;;1854170;77;20118;-73
2021/10/30 09:23:29;;;;;;;;;;;12.30;99.90;;;;;;1854798;76;20126;-72
2021/10/30 09:26:00;;;;;;;;;;;12.40;99.90;;;;;;1854672;76;20212;-72
2021/10/30 09:28:31;;;;;;;;;;;12.40;99.90;;;;;;1854710;76;20471;-72
2021/10/30 09:31:00;;;;;;;;;;;12.40;99.90;;;;;;1854794;77;20126;-72
2021/10/30 09:33:31;;;;;;;;;;;12.40;99.90;;;;;;1854902;77;20377;-72
2021/10/30 09:36:02;;;;;;;;;;;12.50;99.90;;;;;;1854835;77;20174;-71
2021/10/30 09:38:33;;;;;;;;;;;12.40;99.90;;;;;;1855024;76;20157;-71
2021/10/30 09:41:01;;;;;;;;;;;12.50;99.90;;;;;;1854965;77;20478;-72
2021/10/30 09:43:28;;;;;;;;;;;12.40;99.90;;;;;;1854710;77;20482;-72
2021/10/30 09:45:56;;;;;;;;;;;12.50;99.90;;;;;;1854812;77;20365;-72
2021/10/30 09:48:25;;;;;;;;;;;12.50;99.90;;;;;;1854913;76;20420;-71
2021/10/30 09:50:52;;;;;;;;;;;12.50;99.90;;;;;;1854875;77;20185;-71
2021/10/30 09:53:27;;;;;;;;;;;12.50;99.90;;;;;;1854775;77;20157;-72
2021/10/30 09:55:55;;;;;;;;;;;12.50;99.90;;;;;;1854807;76;20220;-72
2021/10/30 09:58:31;;;;;;;;;;;12.40;99.90;;;;;;1854733;76;20181;-72
2021/10/30 10:01:00;;;;;;;;;;;12.50;99.90;;;;;;1854846;77;20166;-71
2021/10/30 10:03:27;;;;;;;;;;;12.40;99.90;;;;;;1854782;77;20111;-71
2021/10/30 10:05:55;;;;;;;;;;;12.40;99.90;;;;;;1866988;75;20191;-71
2021/10/30 10:08:22;;;;;;;;;;;12.40;99.90;;;;;;1918141;75;20153;-71
2021/10/30 10:10:49;;;;;;;;;;;12.40;99.90;;;;;;1923277;73;20106;-73
2021/10/30 10:13:17;;;;;;;;;;;12.40;99.90;;;;;;1923096;75;20207;-71
2021/10/30 10:15:44;;;;;;;;;;;12.50;99.90;;;;;;1923009;74;20204;-71
2021/10/30 10:18:12;;;;;;;;;;;12.50;99.90;;;;;;1923147;73;20117;-71
2021/10/30 10:20:39;;;;;;;;;;;12.60;99.90;;;;;;1923051;75;20158;-71
2021/10/30 10:23:05;;;;;;;;;;;12.50;99.90;;;;;;1923203;75;20114;-71
2021/10/30 10:25:34;;;;;;;;;;;12.50;99.90;;;;;;1923003;75;20192;-71
2021/10/30 10:28:05;;;;;;;;;;;12.50;99.90;;;;;;1922918;73;20157;-71
2021/10/30 10:30:33;;;;;;;;;;;12.50;99.90;;;;;;1915437;75;20183;-71
2021/10/30 10:33:16;;;;;;;;;;;12.60;99.90;;;;;;1920044;74;20168;-71
2021/10/30 10:35:44;;;;;;;;;;;12.60;99.90;;;;;;1922868;73;20161;-71
2021/10/30 10:38:11;;;;;;;;;;;12.60;99.90;;;;;;1916583;73;20454;-71
2021/10/30 10:40:38;;;;;;;;;;;12.60;99.90;;;;;;1889190;76;20414;-71
2021/10/30 10:43:05;;;;;;;;;;;12.60;99.90;;;;;;1889116;76;20206;-71
2021/10/30 10:45:39;;;;;;;;;;;12.60;99.90;;;;;;1888914;76;20132;-71
2021/10/30 10:48:06;;;;;;;;;;;12.70;99.90;;;;;;1891637;74;20118;-71
2021/10/30 10:50:36;;;;;;;;;;;12.70;99.90;;;;;;1889029;76;20183;-71
2021/10/30 10:53:09;;;;;;;;;;;12.70;99.90;;;;;;1889095;76;20500;-71
2021/10/30 10:55:37;;;;;;;;;;;12.70;99.90;;;;;;1888982;75;20167;-71
2021/10/30 10:58:05;;;;;;;;;;;12.70;99.90;;;;;;1888982;75;20194;-71
2021/10/30 11:00:32;;;;;;;;;;;12.70;99.90;;;;;;1888965;76;20201;-71
2021/10/30 11:02:59;;;;;;;;;;;12.70;99.90;;;;;;1891017;73;20112;-68
2021/10/30 11:05:30;;;;;;;;;;;12.80;99.90;;;;;;1899667;74;20126;-69
2021/10/30 11:07:58;;;;;;;;;;;12.80;99.90;;;;;;1881387;76;20112;-69
2021/10/30 11:10:26;;;;;;;;;;;12.90;99.90;;;;;;1881499;76;20450;-69
2021/10/30 11:13:00;;;;;;;;;;;12.90;99.90;;;;;;1881311;75;20164;-70
2021/10/30 11:15:28;;;;;;;;;;;13.00;99.90;;;;;;1881361;76;20500;-70
2021/10/30 11:18:04;;;;;;;;;;;13.00;99.90;;;;;;1881291;76;20445;-70
2021/10/30 11:20:39;;;;;;;;;;;13.10;99.90;;;;;;1881551;76;20468;-72
2021/10/30 11:23:07;;;;;;;;;;;13.10;99.90;;;;;;1881411;75;20163;-72
2021/10/30 11:25:34;;;;;;;;;;;13.00;99.90;;;;;;1881129;76;20183;-72
2021/10/30 11:28:01;;;;;;;;;;;13.10;99.90;;;;;;1881405;76;20206;-71
2021/10/30 11:30:31;;;;;;;;;;;13.10;99.90;;;;;;1881461;76;20175;-70
2021/10/30 11:33:02;;;;;;;;;;;13.10;99.90;;;;;;1881219;75;20539;-71
2021/10/30 11:35:29;;;;;;;;;;;13.10;99.90;;;;;;1881598;76;20498;-70
2021/10/30 11:37:58;;;;;;;;;;;13.20;99.90;;;;;;1881413;76;20214;-71
2021/10/30 11:40:24;;;;;;;;;;;13.20;99.90;;;;;;1881666;75;20155;-71
2021/10/30 11:42:54;;;;;;;;;;;13.30;99.90;;;;;;1881383;75;20366;-70
2021/10/30 11:45:20;;;;;;;;;;;13.30;99.90;;;;;;1880963;76;20164;-70
2021/10/30 11:47:49;;;;;;;;;;;13.30;99.90;;;;;;1881265;76;20151;-70
2021/10/30 11:50:16;;;;;;;;;;;13.30;99.90;;;;;;1881453;76;20546;-70
2021/10/30 11:52:50;;;;;;;;;;;13.40;99.90;;;;;;1881339;75;20172;-70
2021/10/30 11:55:12;;;;;;;;;;;13.40;99.90;;;;;;1878511;76;20211;-70
2021/10/30 11:57:40;;;;;;;;;;;13.40;99.90;;;;;;1881556;76;20184;-70
2021/10/30 12:00:07;;;;;;;;;;;13.40;99.90;;;;;;1897318;75;20193;-70
2021/10/30 12:02:34;;;;;;;;;;;13.40;99.90;;;;;;1900564;75;20189;-69
2021/10/30 12:05:12;;;;;;;;;;;13.40;99.90;;;;;;1900447;74;20212;-70
2021/10/30 12:07:40;;;;;;;;;;;13.40;99.90;;;;;;1900644;75;20169;-70
2021/10/30 12:10:07;;;;;;;;;;;13.40;99.90;;;;;;1900835;75;20173;-70
2021/10/30 12:12:35;;;;;;;;;;;13.40;99.90;;;;;;1900877;75;20119;-69
2021/10/30 12:15:01;;;;;;;;;;;13.40;99.90;;;;;;1907390;74;20187;-70
2021/10/30 12:17:29;;;;;;;;;;;13.50;99.90;;;;;;1914123;75;20219;-69
2021/10/30 12:19:58;;;;;;;;;;;13.50;99.90;;;;;;1913941;74;20423;-70
2021/10/30 12:22:25;;;;;;;;;;;13.50;99.90;;;;;;1913997;75;20175;-70
2021/10/30 12:25:02;;;;;;;;;;;13.60;99.90;;;;;;1913760;75;20149;-70
2021/10/30 12:27:28;;;;;;;;;;;13.60;99.90;;;;;;1914065;75;20192;-71
2021/10/30 12:29:55;;;;;;;;;;;13.60;99.90;;;;;;1913780;75;20308;-70
2021/10/30 12:32:24;;;;;;;;;;;13.60;99.90;;;;;;1913941;75;20203;-71
2021/10/30 12:34:57;;;;;;;;;;;13.60;99.90;;;;;;1913611;74;20196;-71
2021/10/30 12:37:26;;;;;;;;;;;13.60;99.90;;;;;;1913883;75;20519;-71
2021/10/30 12:39:57;;;;;;;;;;;13.60;99.90;;;;;;1904168;75;20361;-71
2021/10/30 12:42:24;;;;;;;;;;;13.70;99.90;;;;;;1898249;76;20169;-71
2021/10/30 12:44:51;;;;;;;;;;;13.70;99.90;;;;;;1898251;74;20177;-71
2021/10/30 12:47:20;;;;;;;;;;;13.70;99.90;;;;;;1898345;76;20189;-70
2021/10/30 12:49:48;;;;;;;;;;;13.70;99.90;;;;;;1899451;75;20153;-71
2021/10/30 12:52:15;;;;;;;;;;;13.70;99.90;;;;;;1897292;75;20123;-71
2021/10/30 12:54:43;;;;;;;;;;;13.80;99.90;;;;;;1898277;74;20173;-71
2021/10/30 12:57:23;;;;;;;;;;;13.70;99.90;;;;;;1896818;75;20236;-70
2021/10/30 13:00:00;;;;;;;;;;;13.70;99.90;;;;;;1898080;76;20178;-70
2021/10/30 13:02:28;;;;;;;;;;;13.80;99.90;;;;;;1898167;76;20309;-70
2021/10/30 13:04:55;;;;;;;;;;;13.70;99.90;;;;;;1898038;74;20158;-69
2021/10/30 13:07:22;;;;;;;;;;;13.80;99.90;;;;;;1898227;75;20165;-70
2021/10/30 13:09:58;;;;;;;;;;;13.70;99.90;;;;;;1898284;76;20149;-70
2021/10/30 13:12:25;;;;;;;;;;;13.70;99.90;;;;;;1898271;76;20208;-70
2021/10/30 13:14:53;;;;;;;;;;;13.70;99.90;;;;;;1897937;74;20173;-70
2021/10/30 13:17:20;;;;;;;;;;;13.70;99.90;;;;;;1898241;76;20255;-69
2021/10/30 13:19:47;;;;;;;;;;;13.80;99.90;;;;;;1898074;76;20247;-70
2021/10/30 13:22:14;;;;;;;;;;;13.80;99.90;;;;;;1898289;76;20151;-69
2021/10/30 13:24:41;;;;;;;;;;;13.70;99.90;;;;;;1898324;74;20166;-70
2021/10/30 13:27:09;;;;;;;;;;;13.70;99.90;;;;;;1898028;76;20184;-70
2021/10/30 13:29:36;;;;;;;;;;;13.70;99.90;;;;;;1898298;76;20123;-70
2021/10/30 13:32:03;;;;;;;;;;;13.70;99.90;;;;;;1898143;76;20170;-70
2021/10/30 13:34:34;;;;;;;;;;;13.70;99.90;;;;;;1898064;74;20229;-69
2021/10/30 13:37:01;;;;;;;;;;;13.70;99.90;;;;;;1898070;76;20273;-70
2021/10/30 13:39:28;;;;;;;;;;;13.70;99.90;;;;;;1898312;76;20122;-70
2021/10/30 13:41:56;;;;;;;;;;;13.70;99.90;;;;;;1898446;76;20203;-68
2021/10/30 13:44:24;;;;;;;;;;;13.70;99.90;;;;;;1898295;74;20159;-70
2021/10/30 13:46:51;;;;;;;;;;;13.60;99.90;;;;;;1898314;76;20208;-69
2021/10/30 13:49:18;;;;;;;;;;;13.60;99.90;;;;;;1898432;76;20166;-69
2021/10/30 13:51:45;;;;;;;;;;;13.60;99.90;;;;;;1898469;75;20146;-69
2021/10/30 13:54:12;;;;;;;;;;;13.70;99.90;;;;;;1898569;74;20199;-71
2021/10/30 13:56:39;;;;;;;;;;;13.60;99.90;;;;;;1898100;76;20158;-71
2021/10/30 13:59:06;;;;;;;;;;;13.60;99.90;;;;;;1898263;76;20173;-72
2021/10/30 14:01:33;;;;;;;;;;;13.60;99.90;;;;;;1898523;76;20237;-70
2021/10/30 14:04:00;;;;;;;;;;;13.60;99.90;;;;;;1898464;74;20207;-71
2021/10/30 14:06:26;;;;;;;;;;;13.60;99.90;;;;;;1898863;75;20123;-72
2021/10/30 14:08:53;;;;;;;;;;;13.60;99.90;;;;;;1910968;75;20219;-71
2021/10/30 14:11:21;;;;;;;;;;;13.60;99.90;;;;;;1913892;74;20191;-71
2021/10/30 14:13:47;;;;;;;;;;;13.50;99.90;;;;;;1884624;75;20202;-71
2021/10/30 14:16:14;;;;;;;;;;;13.50;99.90;;;;;;1879821;76;20194;-71
2021/10/30 14:18:44;;;;;;;;;;;13.50;99.90;;;;;;1879840;76;20128;-71